createdAt,value
2019-03-16T00:00:09.733Z,0.40
2019-03-16T00:02:38.253Z,0.50
2019-03-16T00:05:07.333Z,0.60
2019-03-16T00:07:35.857Z,0.40
2019-03-16T00:10:06.042Z,0.40
2019-03-16T00:12:34.563Z,0.47
2019-03-16T00:15:03.102Z,0.50
2019-03-16T00:17:31.687Z,0.40
2019-03-16T00:20:00.408Z,0.40
2019-03-16T00:22:28.914Z,0.50
2019-03-16T00:24:57.380Z,0.40
2019-03-16T00:27:25.902Z,0.40
2019-03-16T00:29:54.442Z,0.40
2019-03-16T00:32:23.027Z,0.43
2019-03-16T00:34:51.495Z,0.50
2019-03-16T00:37:20.040Z,0.50
2019-03-16T00:39:48.494Z,0.40
2019-03-16T00:42:16.950Z,0.43
2019-03-16T00:44:45.471Z,0.43
2019-03-16T00:47:14.008Z,0.40
2019-03-16T00:49:42.549Z,0.50
2019-03-16T00:52:11.083Z,0.40
2019-03-16T00:54:39.602Z,0.50
2019-03-16T00:57:08.074Z,0.50
2019-03-16T00:59:36.526Z,0.60
2019-03-16T01:02:05.058Z,0.50
2019-03-16T01:04:33.593Z,0.50
2019-03-16T01:07:02.202Z,0.40
2019-03-16T01:09:30.664Z,0.40
2019-03-16T01:11:59.179Z,0.40
2019-03-16T01:14:27.722Z,0.40
2019-03-16T01:16:56.545Z,0.50
2019-03-16T01:19:25.082Z,0.40
2019-03-16T01:21:53.538Z,0.40
2019-03-16T01:24:22.087Z,0.40
2019-03-16T01:26:50.607Z,0.40
2019-03-16T01:29:19.150Z,0.50
2019-03-16T01:31:47.603Z,0.40
2019-03-16T01:34:16.134Z,0.40
2019-03-16T01:36:44.666Z,0.40
2019-03-16T01:39:13.198Z,0.40
2019-03-16T01:41:41.647Z,0.40
2019-03-16T01:44:10.188Z,0.50
2019-03-16T01:46:38.711Z,0.40
2019-03-16T01:49:07.166Z,0.50
2019-03-16T01:51:35.722Z,0.40
2019-03-16T01:54:04.315Z,0.40
2019-03-16T01:56:32.855Z,0.40
2019-03-16T01:59:01.445Z,0.50
2019-03-16T02:01:30.054Z,0.40
2019-03-16T02:03:58.511Z,0.50
2019-03-16T02:06:27.054Z,0.40
2019-03-16T02:08:55.575Z,0.40
2019-03-16T02:11:24.121Z,0.40
2019-03-16T02:13:52.727Z,0.40
2019-03-16T02:16:21.343Z,0.40
2019-03-16T02:18:49.866Z,0.40
2019-03-16T02:21:18.402Z,0.40
2019-03-16T02:23:46.859Z,0.50
2019-03-16T02:26:15.399Z,0.40
2019-03-16T02:28:43.928Z,0.40
2019-03-16T02:31:12.544Z,0.40
2019-03-16T02:33:41.139Z,0.40
2019-03-16T02:36:09.684Z,0.30
2019-03-16T02:38:38.220Z,0.40
2019-03-16T02:41:06.820Z,0.40
2019-03-16T02:43:35.354Z,0.40
2019-03-16T02:46:03.888Z,0.40
2019-03-16T02:48:32.408Z,0.40
2019-03-16T02:51:00.947Z,0.40
2019-03-16T02:53:29.475Z,0.40
2019-03-16T02:55:58.019Z,0.40
2019-03-16T02:58:26.469Z,0.60
2019-03-16T03:00:55.067Z,0.40
2019-03-16T03:03:29.744Z,0.40
2019-03-16T03:05:53.788Z,0.50
2019-03-16T03:08:22.329Z,0.40
2019-03-16T03:10:50.847Z,0.50
2019-03-16T03:13:19.311Z,0.40
2019-03-16T03:15:47.839Z,0.40
2019-03-16T03:18:16.378Z,0.50
2019-03-16T03:20:44.956Z,0.40
2019-03-16T03:23:13.468Z,0.40
2019-03-16T03:25:41.995Z,0.40
2019-03-16T03:28:10.467Z,0.40
2019-03-16T03:30:39.064Z,0.40
2019-03-16T03:33:07.706Z,0.40
2019-03-16T03:35:36.222Z,0.70
2019-03-16T03:38:04.821Z,0.40
2019-03-16T03:40:33.803Z,0.40
2019-03-16T03:43:02.326Z,0.40
2019-03-16T03:45:30.871Z,0.43
2019-03-16T03:47:59.467Z,0.40
2019-03-16T03:50:27.991Z,0.50
2019-03-16T03:52:56.604Z,0.40
2019-03-16T03:55:25.492Z,0.50
2019-03-16T03:57:54.284Z,0.40
2019-03-16T04:00:22.799Z,0.40
2019-03-16T04:02:51.407Z,0.40
2019-03-16T04:05:19.994Z,0.40
2019-03-16T04:07:48.684Z,0.40
2019-03-16T04:10:17.362Z,0.40
2019-03-16T04:12:45.967Z,0.50
2019-03-16T04:15:14.551Z,0.50
2019-03-16T04:17:43.228Z,0.40
2019-03-16T04:20:15.268Z,0.40
2019-03-16T04:22:43.855Z,0.40
2019-03-16T04:25:12.644Z,0.50
2019-03-16T04:27:41.164Z,0.40
2019-03-16T04:30:11.475Z,0.40
2019-03-16T04:32:39.999Z,0.40
2019-03-16T04:35:08.684Z,0.33
2019-03-16T04:37:37.359Z,0.40
2019-03-16T04:40:08.198Z,0.40
2019-03-16T04:42:36.673Z,0.40
2019-03-16T04:45:07.843Z,0.40
2019-03-16T04:47:36.363Z,0.40
2019-03-16T04:50:07.614Z,0.40
2019-03-16T04:52:36.150Z,0.40
2019-03-16T04:55:05.444Z,0.40
2019-03-16T04:57:33.969Z,0.50
2019-03-16T05:00:02.506Z,0.70
2019-03-16T05:02:31.039Z,0.40
2019-03-16T05:04:59.582Z,0.40
2019-03-16T05:07:28.108Z,0.40
2019-03-16T05:09:56.631Z,0.80
2019-03-16T05:12:25.170Z,0.40
2019-03-16T05:14:53.691Z,0.40
2019-03-16T05:17:22.242Z,0.40
2019-03-16T05:19:50.763Z,0.40
2019-03-16T05:22:19.258Z,0.40
2019-03-16T05:24:47.759Z,0.40
2019-03-16T05:27:16.278Z,0.40
2019-03-16T05:29:44.752Z,0.40
2019-03-16T05:32:13.275Z,0.40
2019-03-16T05:34:55.653Z,0.40
2019-03-16T05:37:11.989Z,0.40
2019-03-16T05:39:40.535Z,0.40
2019-03-16T05:42:09.059Z,0.40
2019-03-16T05:44:37.522Z,0.40
2019-03-16T05:47:06.054Z,0.40
2019-03-16T05:49:34.602Z,0.40
2019-03-16T05:52:03.050Z,0.50
2019-03-16T05:54:31.523Z,0.40
2019-03-16T05:57:00.043Z,0.40
2019-03-16T05:59:28.526Z,0.50
2019-03-16T06:01:57.055Z,0.40
2019-03-16T06:04:25.507Z,0.40
2019-03-16T06:06:54.054Z,0.50
2019-03-16T06:09:22.570Z,0.40
2019-03-16T06:11:51.051Z,0.40
2019-03-16T06:14:19.578Z,0.40
2019-03-16T06:16:48.168Z,0.47
2019-03-16T06:19:16.711Z,0.40
2019-03-16T06:21:45.157Z,0.50
2019-03-16T06:24:13.624Z,0.40
2019-03-16T06:26:42.147Z,0.40
2019-03-16T06:29:10.671Z,0.40
2019-03-16T06:31:39.143Z,0.30
2019-03-16T06:34:07.673Z,0.40
2019-03-16T06:36:36.192Z,0.40
2019-03-16T06:39:06.846Z,0.40
2019-03-16T06:41:35.375Z,0.40
2019-03-16T06:44:03.912Z,0.40
2019-03-16T06:46:32.435Z,0.50
2019-03-16T06:49:00.984Z,0.40
2019-03-16T06:51:29.502Z,0.40
2019-03-16T06:53:57.979Z,0.50
2019-03-16T06:56:26.511Z,0.40
2019-03-16T06:58:58.238Z,0.40
2019-03-16T07:01:25.236Z,0.40
2019-03-16T07:03:53.766Z,0.40
2019-03-16T07:06:22.243Z,0.40
2019-03-16T07:08:50.797Z,0.40
2019-03-16T07:11:19.319Z,0.40
2019-03-16T07:13:47.847Z,0.50
2019-03-16T07:16:16.390Z,0.40
2019-03-16T07:18:58.033Z,0.40
2019-03-16T07:21:15.039Z,0.83
2019-03-16T07:23:43.559Z,0.40
2019-03-16T07:26:15.031Z,0.50
2019-03-16T07:28:42.221Z,0.40
2019-03-16T07:31:10.765Z,0.40
2019-03-16T07:33:39.302Z,0.30
2019-03-16T07:36:07.822Z,0.50
2019-03-16T07:38:36.298Z,0.70
2019-03-16T07:41:04.828Z,0.40
2019-03-16T07:43:33.478Z,0.60
2019-03-16T07:46:02.069Z,0.40
2019-03-16T07:48:30.546Z,0.60
2019-03-16T07:50:59.078Z,0.50
2019-03-16T07:53:29.192Z,0.50
2019-03-16T07:55:57.712Z,0.50
2019-03-16T07:58:26.235Z,0.50
2019-03-16T08:00:54.704Z,0.40
2019-03-16T08:03:23.230Z,0.40
2019-03-16T08:05:51.779Z,0.40
2019-03-16T08:08:20.307Z,0.50
2019-03-16T08:10:48.865Z,0.40
2019-03-16T08:13:17.467Z,0.43
2019-03-16T08:15:45.994Z,0.40
2019-03-16T08:18:14.537Z,0.40
2019-03-16T08:20:43.001Z,0.50
2019-03-16T08:23:11.550Z,0.40
2019-03-16T08:25:40.021Z,0.70
2019-03-16T08:28:08.552Z,0.43
2019-03-16T08:30:37.018Z,0.40
2019-03-16T08:33:05.476Z,0.40
2019-03-16T08:35:34.014Z,0.50
2019-03-16T08:38:02.554Z,0.50
2019-03-16T08:40:31.018Z,0.40
2019-03-16T08:42:59.545Z,0.40
2019-03-16T08:45:28.071Z,0.40
2019-03-16T08:47:56.616Z,0.40
2019-03-16T08:50:25.131Z,0.40
2019-03-16T08:52:53.984Z,0.37
2019-03-16T08:55:22.627Z,0.40
2019-03-16T08:57:51.150Z,0.40
2019-03-16T09:00:19.694Z,0.50
2019-03-16T09:02:48.214Z,0.40
2019-03-16T09:05:16.689Z,0.50
2019-03-16T09:07:45.211Z,0.50
2019-03-16T09:10:13.871Z,0.40
2019-03-16T09:12:54.479Z,0.50
2019-03-16T09:15:16.402Z,0.40
2019-03-16T09:17:44.948Z,0.40
2019-03-16T09:20:13.622Z,0.50
2019-03-16T09:22:42.143Z,0.40
2019-03-16T09:25:11.255Z,0.40
2019-03-16T09:27:39.914Z,0.40
2019-03-16T09:30:13.806Z,0.50
2019-03-16T09:32:42.435Z,0.40
2019-03-16T09:35:15.524Z,0.40
2019-03-16T09:37:44.325Z,0.40
2019-03-16T09:40:13.087Z,0.40
2019-03-16T09:42:42.098Z,1.37
2019-03-16T09:45:13.847Z,0.50
2019-03-16T09:47:42.368Z,0.40
2019-03-16T09:50:12.052Z,0.40
2019-03-16T09:52:40.725Z,0.47
2019-03-16T09:55:10.904Z,0.40
2019-03-16T09:57:39.437Z,0.47
2019-03-16T10:00:15.725Z,0.40
2019-03-16T10:02:44.241Z,0.40
2019-03-16T10:05:12.902Z,0.47
2019-03-16T10:07:41.515Z,0.60
2019-03-16T10:10:13.877Z,0.40
2019-03-16T10:12:42.494Z,0.40
2019-03-16T10:15:13.554Z,0.60
2019-03-16T10:17:42.087Z,0.40
2019-03-16T10:20:14.131Z,0.40
2019-03-16T10:22:42.824Z,0.50
2019-03-16T10:25:11.416Z,0.50
2019-03-16T10:27:40.075Z,0.50
2019-03-16T10:30:13.040Z,0.60
2019-03-16T10:32:41.635Z,0.40
2019-03-16T10:35:10.255Z,0.50
2019-03-16T10:37:38.836Z,0.70
2019-03-16T10:40:12.248Z,0.50
2019-03-16T10:42:40.766Z,0.83
2019-03-16T10:45:11.440Z,0.67
2019-03-16T10:47:40.038Z,0.50
2019-03-16T10:50:13.809Z,0.60
2019-03-16T10:52:42.436Z,0.60
2019-03-16T10:55:11.092Z,0.67
2019-03-16T10:57:39.610Z,0.50
2019-03-16T11:00:11.071Z,0.70
2019-03-16T11:02:39.657Z,0.60
2019-03-16T11:05:08.274Z,0.50
2019-03-16T11:07:36.806Z,0.50
2019-03-16T11:10:10.580Z,0.80
2019-03-16T11:12:39.335Z,0.90
2019-03-16T11:15:10.194Z,0.50
2019-03-16T11:17:39.146Z,0.53
2019-03-16T11:20:12.411Z,0.50
2019-03-16T11:22:40.949Z,0.60
2019-03-16T11:25:09.552Z,0.57
2019-03-16T11:27:38.084Z,0.60
2019-03-16T11:30:14.981Z,0.70
2019-03-16T11:32:43.649Z,0.60
2019-03-16T11:35:12.250Z,0.50
2019-03-16T11:37:40.696Z,0.70
2019-03-16T11:40:12.322Z,0.50
2019-03-16T11:42:40.844Z,0.60
2019-03-16T11:45:11.133Z,0.50
2019-03-16T11:47:39.655Z,0.60
2019-03-16T11:50:10.143Z,0.60
2019-03-16T11:52:38.771Z,0.67
2019-03-16T11:55:08.826Z,0.50
2019-03-16T11:57:37.363Z,0.60
2019-03-16T12:00:14.173Z,0.57
2019-03-16T12:02:42.782Z,0.50
2019-03-16T12:05:11.980Z,0.50
2019-03-16T12:07:40.671Z,0.60
2019-03-16T12:10:13.478Z,0.60
2019-03-16T12:12:41.957Z,0.50
2019-03-16T12:15:11.622Z,0.50
2019-03-16T12:17:40.141Z,0.60
2019-03-16T12:20:13.420Z,0.80
2019-03-16T12:22:42.006Z,0.50
2019-03-16T12:25:10.623Z,0.70
2019-03-16T12:27:39.150Z,0.70
2019-03-16T12:30:13.178Z,0.83
2019-03-16T12:32:41.799Z,0.57
2019-03-16T12:35:10.387Z,0.50
2019-03-16T12:37:38.998Z,0.60
2019-03-16T12:40:14.171Z,0.63
2019-03-16T12:42:42.698Z,0.50
2019-03-16T12:45:14.177Z,0.53
2019-03-16T12:47:42.736Z,0.50
2019-03-16T12:50:11.452Z,0.50
2019-03-16T12:52:40.014Z,0.60
2019-03-16T12:55:10.282Z,0.60
2019-03-16T12:57:38.968Z,0.50
2019-03-16T13:00:17.524Z,0.60
2019-03-16T13:02:46.130Z,0.57
2019-03-16T13:05:16.546Z,0.60
2019-03-16T13:07:45.096Z,0.50
2019-03-16T13:10:17.657Z,0.60
2019-03-16T13:12:46.189Z,0.60
2019-03-16T13:15:14.715Z,0.43
2019-03-16T13:17:43.230Z,0.53
2019-03-16T13:20:15.462Z,0.63
2019-03-16T13:22:44.063Z,0.77
2019-03-16T13:25:12.613Z,0.60
2019-03-16T13:27:41.649Z,0.60
2019-03-16T13:30:17.527Z,0.70
2019-03-16T13:32:46.042Z,0.60
2019-03-16T13:35:14.683Z,0.53
2019-03-16T13:37:43.203Z,0.60
2019-03-16T13:40:14.236Z,0.80
2019-03-16T13:42:42.853Z,0.60
2019-03-16T13:45:11.526Z,0.60
2019-03-16T13:47:40.066Z,1.50
2019-03-16T13:50:14.058Z,0.60
2019-03-16T13:52:42.983Z,0.50
2019-03-16T13:55:11.642Z,0.53
2019-03-16T13:57:40.364Z,0.57
2019-03-16T14:00:15.528Z,0.67
2019-03-16T14:02:44.062Z,0.50
2019-03-16T14:05:12.675Z,0.60
2019-03-16T14:07:41.578Z,0.63
2019-03-16T14:10:13.571Z,0.50
2019-03-16T14:12:42.099Z,0.50
2019-03-16T14:15:10.801Z,0.50
2019-03-16T14:17:39.578Z,0.57
2019-03-16T14:20:11.223Z,0.50
2019-03-16T14:22:39.813Z,0.50
2019-03-16T14:25:09.595Z,0.50
2019-03-16T14:27:38.128Z,0.67
2019-03-16T14:30:29.050Z,0.60
2019-03-16T14:32:45.172Z,0.60
2019-03-16T14:35:14.041Z,0.50
2019-03-16T14:37:42.646Z,0.60
2019-03-16T14:40:12.987Z,0.53
2019-03-16T14:42:41.638Z,0.87
2019-03-16T14:45:11.907Z,0.50
2019-03-16T14:47:40.430Z,0.70
2019-03-16T14:50:16.228Z,0.60
2019-03-16T14:52:44.561Z,0.60
2019-03-16T14:55:13.110Z,0.50
2019-03-16T14:57:41.634Z,0.80
2019-03-16T15:00:17.275Z,0.50
2019-03-16T15:02:46.647Z,0.57
2019-03-16T15:05:16.408Z,0.60
2019-03-16T15:07:45.153Z,0.70
2019-03-16T15:10:17.503Z,0.60
2019-03-16T15:12:45.975Z,0.60
2019-03-16T15:15:18.583Z,0.57
2019-03-16T15:17:47.248Z,0.70
2019-03-16T15:20:15.866Z,0.73
2019-03-16T15:22:44.461Z,0.60
2019-03-16T15:25:13.849Z,0.70
2019-03-16T15:27:42.363Z,0.70
2019-03-16T15:30:13.343Z,0.70
2019-03-16T15:32:42.022Z,0.60
2019-03-16T15:35:10.696Z,0.50
2019-03-16T15:37:39.475Z,0.50
2019-03-16T15:40:13.221Z,0.60
2019-03-16T15:42:41.744Z,0.70
2019-03-16T15:45:24.830Z,0.63
2019-03-16T15:47:53.505Z,0.63
2019-03-16T15:50:22.180Z,0.60
2019-03-16T15:52:50.734Z,0.80
2019-03-16T15:55:19.372Z,0.70
2019-03-16T15:57:47.924Z,0.57
2019-03-16T16:00:17.761Z,0.50
2019-03-16T16:02:46.554Z,0.70
2019-03-16T16:05:15.215Z,0.90
2019-03-16T16:07:43.895Z,1.27
2019-03-16T16:10:16.835Z,1.20
2019-03-16T16:12:45.499Z,1.00
2019-03-16T16:15:14.776Z,0.80
2019-03-16T16:17:43.379Z,0.70
2019-03-16T16:20:16.902Z,0.70
2019-03-16T16:22:45.429Z,0.90
2019-03-16T16:25:14.780Z,0.70
2019-03-16T16:27:43.478Z,0.73
2019-03-16T16:30:14.314Z,0.60
2019-03-16T16:32:42.926Z,0.70
2019-03-16T16:35:13.223Z,0.50
2019-03-16T16:37:41.767Z,0.60
2019-03-16T16:40:12.237Z,0.70
2019-03-16T16:42:40.782Z,0.70
2019-03-16T16:45:11.448Z,0.63
2019-03-16T16:47:40.043Z,0.57
2019-03-16T16:50:14.388Z,0.73
2019-03-16T16:52:42.934Z,0.70
2019-03-16T16:55:11.471Z,0.60
2019-03-16T16:57:39.933Z,0.93
2019-03-16T17:00:13.848Z,0.70
2019-03-16T17:02:42.543Z,1.00
2019-03-16T17:05:11.200Z,0.80
2019-03-16T17:07:39.814Z,1.00
2019-03-16T17:10:14.039Z,0.67
2019-03-16T17:12:42.968Z,0.60
2019-03-16T17:15:16.464Z,0.60
2019-03-16T17:17:44.917Z,0.50
2019-03-16T17:20:14.498Z,0.60
2019-03-16T17:22:43.197Z,0.80
2019-03-16T17:25:15.827Z,0.63
2019-03-16T17:27:44.452Z,0.60
2019-03-16T17:30:20.691Z,0.60
2019-03-16T17:32:49.143Z,0.70
2019-03-16T17:35:17.595Z,0.70
2019-03-16T17:37:46.222Z,0.80
2019-03-16T17:40:15.791Z,1.00
2019-03-16T17:42:44.415Z,0.80
2019-03-16T17:45:14.280Z,0.63
2019-03-16T17:47:42.881Z,0.60
2019-03-16T17:50:12.855Z,0.60
2019-03-16T17:52:41.391Z,0.97
2019-03-16T17:55:11.280Z,0.70
2019-03-16T17:57:39.803Z,0.90
2019-03-16T18:00:18.597Z,1.73
2019-03-16T18:02:51.809Z,0.73
2019-03-16T18:05:17.486Z,1.03
2019-03-16T18:07:46.058Z,1.00
2019-03-16T18:10:15.230Z,0.70
2019-03-16T18:12:43.778Z,0.77
2019-03-16T18:15:13.768Z,1.10
2019-03-16T18:17:42.366Z,0.83
2019-03-16T18:20:17.477Z,0.80
2019-03-16T18:22:46.193Z,0.90
2019-03-16T18:25:15.065Z,0.83
2019-03-16T18:27:43.658Z,0.80
2019-03-16T18:30:17.416Z,1.43
2019-03-16T18:32:46.066Z,1.10
2019-03-16T18:35:14.683Z,1.70
2019-03-16T18:37:43.209Z,1.23
2019-03-16T18:40:15.842Z,0.97
2019-03-16T18:42:44.526Z,0.90
2019-03-16T18:45:32.775Z,1.60
2019-03-16T18:48:01.352Z,1.30
2019-03-16T18:50:29.899Z,0.93
2019-03-16T18:52:58.446Z,0.90
2019-03-16T18:55:26.977Z,1.40
2019-03-16T18:57:55.519Z,1.30
2019-03-16T19:00:24.038Z,1.20
2019-03-16T19:02:52.593Z,1.83
2019-03-16T19:05:21.182Z,1.80
2019-03-16T19:07:52.423Z,2.10
2019-03-16T19:10:20.977Z,2.50
2019-03-16T19:12:49.505Z,2.60
2019-03-16T19:15:18.818Z,3.00
2019-03-16T19:17:58.200Z,2.70
2019-03-16T19:20:18.143Z,1.90
2019-03-16T19:22:46.834Z,3.20
2019-03-16T19:25:17.443Z,2.63
2019-03-16T19:27:46.046Z,2.77
2019-03-16T19:30:15.633Z,2.90
2019-03-16T19:32:44.799Z,3.03
2019-03-16T19:35:13.579Z,3.43
2019-03-16T19:37:42.255Z,4.40
2019-03-16T19:40:15.215Z,4.70
2019-03-16T19:42:46.549Z,6.10
2019-03-16T19:45:14.157Z,5.73
2019-03-16T19:47:42.749Z,5.47
2019-03-16T19:50:15.601Z,5.90
2019-03-16T19:52:44.266Z,5.10
2019-03-16T19:55:13.957Z,6.10
2019-03-16T19:57:42.483Z,6.33
2019-03-16T20:00:13.740Z,7.10
2019-03-16T20:02:50.223Z,5.53
2019-03-16T20:05:13.465Z,6.30
2019-03-16T20:07:41.991Z,6.17
2019-03-16T20:10:18.559Z,6.27
2019-03-16T20:12:47.291Z,6.20
2019-03-16T20:15:16.470Z,6.53
2019-03-16T20:17:44.993Z,6.07
2019-03-16T20:20:14.983Z,5.00
2019-03-16T20:22:43.576Z,4.53
2019-03-16T20:25:12.566Z,5.10
2019-03-16T20:27:41.218Z,5.03
2019-03-16T20:30:14.180Z,6.37
2019-03-16T20:32:42.838Z,6.07
2019-03-16T20:35:11.669Z,8.30
2019-03-16T20:37:40.251Z,7.53
2019-03-16T20:40:11.331Z,7.10
2019-03-16T20:42:39.945Z,6.60
2019-03-16T20:45:09.978Z,7.30
2019-03-16T20:47:38.614Z,5.63
2019-03-16T20:50:12.837Z,5.63
2019-03-16T20:52:41.367Z,6.87
2019-03-16T20:55:10.243Z,6.47
2019-03-16T20:57:38.796Z,6.23
2019-03-16T21:00:13.366Z,6.33
2019-03-16T21:02:41.914Z,5.93
2019-03-16T21:05:11.022Z,6.97
2019-03-16T21:07:39.619Z,6.05
2019-03-16T21:10:10.286Z,6.10
2019-03-16T21:12:38.834Z,6.03
2019-03-16T21:15:14.730Z,6.08
2019-03-16T21:17:43.348Z,5.37
2019-03-16T21:20:14.586Z,4.83
2019-03-16T21:22:43.266Z,6.05
2019-03-16T21:25:13.731Z,5.40
2019-03-16T21:27:42.343Z,5.40
2019-03-16T21:30:16.531Z,5.55
2019-03-16T21:32:45.074Z,5.83
2019-03-16T21:35:13.684Z,5.03
2019-03-16T21:37:42.234Z,5.12
2019-03-16T21:40:12.699Z,7.10
2019-03-16T21:42:41.323Z,8.40
2019-03-16T21:45:11.285Z,10.45
2019-03-16T21:47:39.898Z,11.18
2019-03-16T21:50:15.942Z,13.18
2019-03-16T21:52:45.132Z,14.00
2019-03-16T21:55:14.773Z,14.25
2019-03-16T21:57:43.476Z,12.07
2019-03-16T22:00:14.088Z,11.40
2019-03-16T22:02:42.654Z,11.78
2019-03-16T22:05:11.319Z,10.45
2019-03-16T22:07:39.999Z,9.80
2019-03-16T22:10:13.556Z,10.23
2019-03-16T22:12:42.086Z,13.32
2019-03-16T22:15:14.375Z,9.88
2019-03-16T22:17:43.247Z,7.97
2019-03-16T22:20:14.002Z,8.73
2019-03-16T22:22:42.540Z,10.18
2019-03-16T22:25:11.724Z,7.30
2019-03-16T22:27:40.323Z,7.28
2019-03-16T22:30:18.043Z,7.78
2019-03-16T22:32:46.567Z,8.03
2019-03-16T22:35:15.193Z,8.10
2019-03-16T22:37:43.787Z,16.80
2019-03-16T22:40:13.557Z,10.82
2019-03-16T22:42:42.347Z,11.90
2019-03-16T22:45:14.514Z,24.30
2019-03-16T22:47:43.060Z,18.15
2019-03-16T22:50:14.099Z,10.00
2019-03-16T22:52:42.638Z,11.08
2019-03-16T22:55:11.237Z,12.63
2019-03-16T22:57:39.859Z,11.33
2019-03-16T23:00:11.405Z,9.98
2019-03-16T23:02:40.011Z,12.15
2019-03-16T23:05:10.376Z,14.83
2019-03-16T23:07:38.991Z,9.05
2019-03-16T23:10:11.679Z,8.83
2019-03-16T23:12:40.229Z,9.43
2019-03-16T23:15:10.305Z,8.20
2019-03-16T23:17:38.920Z,7.67
2019-03-16T23:20:09.157Z,8.33
2019-03-16T23:22:37.775Z,6.35
2019-03-16T23:25:08.506Z,6.08
2019-03-16T23:27:37.046Z,7.67
2019-03-16T23:30:08.802Z,7.90
2019-03-16T23:32:37.360Z,7.95
2019-03-16T23:35:07.622Z,8.93
2019-03-16T23:37:36.219Z,8.13
2019-03-16T23:40:12.173Z,8.05
2019-03-16T23:42:40.624Z,6.10
2019-03-16T23:45:11.678Z,6.37
2019-03-16T23:47:40.274Z,5.67
2019-03-16T23:50:10.759Z,6.75
2019-03-16T23:52:39.203Z,5.47
2019-03-16T23:55:08.787Z,5.00
2019-03-16T23:57:37.318Z,5.60
